createdAt,value
2017-11-29T00:00:26.407Z,8.13
2017-11-29T00:02:55.402Z,10.37
2017-11-29T00:05:24.823Z,13.20
2017-11-29T00:07:54.330Z,9.17
2017-11-29T00:10:24.086Z,9.90
2017-11-29T00:12:53.863Z,10.30
2017-11-29T00:15:23.598Z,8.53
2017-11-29T00:17:52.622Z,9.10
2017-11-29T00:20:21.609Z,8.33
2017-11-29T00:22:51.391Z,9.03
2017-11-29T00:25:20.415Z,11.43
2017-11-29T00:27:49.880Z,12.07
2017-11-29T00:30:19.625Z,9.90
2017-11-29T00:32:50.734Z,11.10
2017-11-29T00:35:19.800Z,10.43
2017-11-29T00:37:49.716Z,10.63
2017-11-29T00:40:20.937Z,11.80
2017-11-29T00:42:50.049Z,8.30
2017-11-29T00:45:19.843Z,10.40
2017-11-29T00:47:50.493Z,10.93
2017-11-29T00:50:20.426Z,10.10
2017-11-29T00:52:50.193Z,11.10
2017-11-29T00:55:20.378Z,13.00
2017-11-29T00:57:49.735Z,10.17
2017-11-29T01:00:19.762Z,12.00
2017-11-29T01:02:49.499Z,11.00
2017-11-29T01:05:18.864Z,11.60
2017-11-29T01:07:48.680Z,11.17
2017-11-29T01:10:18.461Z,12.43
2017-11-29T01:12:47.852Z,16.60
2017-11-29T01:15:16.973Z,10.87
2017-11-29T01:17:46.002Z,12.23
2017-11-29T01:20:14.974Z,16.90
2017-11-29T01:22:44.742Z,11.03
2017-11-29T01:25:13.847Z,13.23
2017-11-29T01:27:42.838Z,14.27
2017-11-29T01:30:11.826Z,12.27
2017-11-29T01:32:40.818Z,11.33
2017-11-29T01:35:09.854Z,15.93
2017-11-29T01:37:39.605Z,12.47
2017-11-29T01:40:08.760Z,13.37
2017-11-29T01:42:38.536Z,13.33
2017-11-29T01:45:07.562Z,13.07
2017-11-29T01:47:36.574Z,12.23
2017-11-29T01:50:05.597Z,14.87
2017-11-29T01:52:34.725Z,16.90
2017-11-29T01:55:03.719Z,13.60
2017-11-29T01:57:33.577Z,14.60
2017-11-29T02:00:03.384Z,15.27
2017-11-29T02:02:32.896Z,14.57
2017-11-29T02:05:02.742Z,18.23
2017-11-29T02:07:31.747Z,18.10
2017-11-29T02:10:00.713Z,16.57
2017-11-29T02:12:29.752Z,22.50
2017-11-29T02:14:59.484Z,17.63
2017-11-29T02:17:28.512Z,16.93
2017-11-29T02:19:57.528Z,18.97
2017-11-29T02:22:38.510Z,23.67
2017-11-29T02:25:18.605Z,19.37
2017-11-29T02:27:47.595Z,20.07
2017-11-29T02:30:16.821Z,19.53
2017-11-29T02:32:46.629Z,17.80
2017-11-29T02:35:15.925Z,21.30
2017-11-29T02:37:45.474Z,22.13
2017-11-29T02:40:39.921Z,17.20
2017-11-29T02:43:09.721Z,29.80
2017-11-29T02:45:38.859Z,24.73
2017-11-29T02:48:08.731Z,19.27
2017-11-29T02:50:38.666Z,20.47
2017-11-29T02:53:07.688Z,26.03
2017-11-29T02:55:36.696Z,21.20
2017-11-29T02:58:06.872Z,21.90
2017-11-29T03:00:36.635Z,22.40
2017-11-29T03:03:06.163Z,20.43
2017-11-29T03:05:35.429Z,19.30
2017-11-29T03:08:04.824Z,17.80
2017-11-29T03:13:44.655Z,16.50
2017-11-29T03:19:17.128Z,22.20
2017-11-29T03:21:46.410Z,18.57
2017-11-29T03:24:15.793Z,26.90
2017-11-29T03:26:45.064Z,16.00
2017-11-29T03:29:14.859Z,20.57
2017-11-29T03:31:43.902Z,20.07
2017-11-29T03:34:13.620Z,20.57
2017-11-29T03:36:43.759Z,23.93
2017-11-29T03:39:12.786Z,22.40
2017-11-29T03:41:41.736Z,20.90
2017-11-29T03:44:11.164Z,19.13
2017-11-29T03:46:40.446Z,21.40
2017-11-29T03:49:09.430Z,19.57
2017-11-29T03:51:38.433Z,16.30
2017-11-29T03:54:08.173Z,17.90
2017-11-29T03:56:37.976Z,21.63
2017-11-29T03:59:06.941Z,20.87
2017-11-29T04:01:35.968Z,19.83
2017-11-29T04:04:05.029Z,17.77
2017-11-29T04:06:34.790Z,19.37
2017-11-29T04:09:04.554Z,27.00
2017-11-29T04:11:33.542Z,20.03
2017-11-29T04:14:02.915Z,21.07
2017-11-29T04:16:32.696Z,22.10
2017-11-29T04:19:02.050Z,17.07
2017-11-29T04:21:31.835Z,21.80
2017-11-29T04:24:01.629Z,22.87
2017-11-29T04:26:31.191Z,21.10
2017-11-29T04:29:00.635Z,19.43
2017-11-29T04:31:29.654Z,21.10
2017-11-29T04:33:58.683Z,21.70
2017-11-29T04:36:27.661Z,18.60
2017-11-29T04:38:56.727Z,23.20
2017-11-29T04:41:26.592Z,21.80
2017-11-29T04:43:55.759Z,20.17
2017-11-29T04:46:24.755Z,20.80
2017-11-29T04:48:53.738Z,19.90
2017-11-29T04:51:22.711Z,25.30
2017-11-29T04:53:52.764Z,20.40
2017-11-29T04:56:24.863Z,24.13
2017-11-29T04:58:54.658Z,25.03
2017-11-29T05:01:27.941Z,28.27
2017-11-29T05:04:00.866Z,23.30
2017-11-29T05:06:31.459Z,25.50
2017-11-29T05:11:38.393Z,21.27
2017-11-29T05:14:07.909Z,25.07
2017-11-29T05:16:38.471Z,24.13
2017-11-29T05:19:07.918Z,26.53
2017-11-29T05:21:36.909Z,21.67
2017-11-29T05:24:06.788Z,26.47
2017-11-29T05:26:35.799Z,26.13
2017-11-29T05:29:05.569Z,24.13
2017-11-29T05:31:34.513Z,23.13
2017-11-29T05:34:03.502Z,22.70
2017-11-29T05:36:32.527Z,27.13
2017-11-29T05:39:01.958Z,20.47
2017-11-29T05:41:30.931Z,26.10
2017-11-29T05:43:59.966Z,26.10
2017-11-29T05:46:29.747Z,25.40
2017-11-29T05:48:58.851Z,25.17
2017-11-29T05:51:28.287Z,25.93
2017-11-29T05:53:57.668Z,23.90
2017-11-29T05:56:27.508Z,29.93
2017-11-29T05:58:57.303Z,26.77
2017-11-29T06:01:26.301Z,23.53
2017-11-29T06:03:55.293Z,22.53
2017-11-29T06:06:24.738Z,25.77
2017-11-29T06:08:54.177Z,25.97
2017-11-29T06:11:23.201Z,23.40
2017-11-29T06:13:52.944Z,21.80
2017-11-29T06:16:22.743Z,27.50
2017-11-29T06:18:52.484Z,25.57
2017-11-29T06:21:21.589Z,21.10
2017-11-29T06:23:51.477Z,21.83
2017-11-29T06:26:21.530Z,20.87
2017-11-29T06:28:50.517Z,23.27
2017-11-29T06:31:19.528Z,24.23
2017-11-29T06:33:48.587Z,20.97
2017-11-29T06:36:17.576Z,26.57
2017-11-29T06:38:47.084Z,27.30
2017-11-29T06:41:16.491Z,27.30
2017-11-29T06:43:45.486Z,22.60
2017-11-29T06:46:14.589Z,21.37
2017-11-29T06:48:43.620Z,22.90
2017-11-29T06:51:12.666Z,27.10
2017-11-29T06:53:41.804Z,32.57
2017-11-29T06:56:10.804Z,24.17
2017-11-29T06:58:40.308Z,29.80
2017-11-29T07:01:10.204Z,24.93
2017-11-29T07:03:40.017Z,24.17
2017-11-29T07:06:09.745Z,23.87
2017-11-29T07:08:38.785Z,31.77
2017-11-29T07:11:07.822Z,31.60
2017-11-29T07:13:37.921Z,25.80
2017-11-29T07:16:08.096Z,25.60
2017-11-29T07:18:37.844Z,29.93
2017-11-29T07:21:08.608Z,30.23
2017-11-29T07:23:38.903Z,28.40
2017-11-29T07:26:09.315Z,28.47
2017-11-29T07:28:38.702Z,32.17
2017-11-29T07:31:07.699Z,26.97
2017-11-29T07:33:37.479Z,40.00
2017-11-29T07:36:06.624Z,27.17
2017-11-29T07:38:35.597Z,32.07
2017-11-29T07:41:05.620Z,27.90
2017-11-29T07:43:35.259Z,35.80
2017-11-29T07:46:04.711Z,40.40
2017-11-29T07:48:34.451Z,74.93
2017-11-29T07:51:03.444Z,52.37
2017-11-29T07:53:32.470Z,35.90
2017-11-29T07:56:01.463Z,37.73
2017-11-29T07:58:30.898Z,34.70
2017-11-29T08:01:00.634Z,32.90
2017-11-29T08:03:29.642Z,32.30
2017-11-29T08:05:58.602Z,31.23
2017-11-29T08:08:28.496Z,40.97
2017-11-29T08:10:57.470Z,33.67
2017-11-29T08:13:26.467Z,29.70
2017-11-29T08:15:55.481Z,30.60
2017-11-29T08:18:24.450Z,30.73
2017-11-29T08:20:53.433Z,35.90
2017-11-29T08:23:22.426Z,28.93
2017-11-29T08:25:51.432Z,34.03
2017-11-29T08:28:20.853Z,39.13
2017-11-29T08:30:50.603Z,38.07
2017-11-29T08:33:19.634Z,36.67
2017-11-29T08:35:48.618Z,32.80
2017-11-29T08:38:17.857Z,37.33
2017-11-29T08:40:47.586Z,38.07
2017-11-29T08:43:16.675Z,36.30
2017-11-29T08:45:46.462Z,40.87
2017-11-29T08:48:16.467Z,41.00
2017-11-29T08:50:45.521Z,43.27
2017-11-29T08:53:14.945Z,33.73
2017-11-29T08:55:44.397Z,39.40
2017-11-29T08:58:13.847Z,41.53
2017-11-29T09:00:42.835Z,37.60
2017-11-29T09:03:11.989Z,39.03
2017-11-29T09:05:41.801Z,35.80
2017-11-29T09:08:10.785Z,38.83
2017-11-29T09:10:39.773Z,37.10
2017-11-29T09:13:09.547Z,35.63
2017-11-29T09:15:38.914Z,37.20
2017-11-29T09:18:08.694Z,43.07
2017-11-29T09:20:37.756Z,40.07
2017-11-29T09:23:07.639Z,38.40
2017-11-29T09:25:36.890Z,37.43
2017-11-29T09:28:06.676Z,46.80
2017-11-29T09:30:35.773Z,51.53
2017-11-29T09:33:04.844Z,34.73
2017-11-29T09:35:33.931Z,34.27
2017-11-29T09:38:03.790Z,34.77
2017-11-29T09:40:33.632Z,30.83
2017-11-29T09:43:02.693Z,37.40
2017-11-29T09:45:32.647Z,39.13
2017-11-29T09:48:01.615Z,32.73
2017-11-29T09:50:31.394Z,32.90
2017-11-29T09:53:00.369Z,38.20
2017-11-29T09:55:29.368Z,33.67
2017-11-29T09:57:59.536Z,40.77
2017-11-29T10:00:28.531Z,34.07
2017-11-29T10:02:57.553Z,42.47
2017-11-29T10:05:26.616Z,38.30
2017-11-29T10:07:55.595Z,32.57
2017-11-29T10:10:24.594Z,36.37
2017-11-29T10:12:54.369Z,33.00
2017-11-29T10:15:24.157Z,37.00
2017-11-29T10:17:53.948Z,38.13
2017-11-29T10:20:22.965Z,33.63
2017-11-29T10:22:52.804Z,28.87
2017-11-29T10:25:22.652Z,37.70
2017-11-29T10:27:52.040Z,39.30
2017-11-29T10:30:21.766Z,39.87
2017-11-29T10:32:51.577Z,36.43
2017-11-29T10:35:21.371Z,38.20
2017-11-29T10:37:51.001Z,47.17
2017-11-29T10:40:20.747Z,57.23
2017-11-29T10:42:50.566Z,52.40
2017-11-29T10:45:19.676Z,41.60
2017-11-29T10:47:50.355Z,38.90
2017-11-29T10:50:19.813Z,43.40
2017-11-29T10:52:49.570Z,48.30
2017-11-29T10:55:18.590Z,34.33
2017-11-29T10:57:47.974Z,38.67
2017-11-29T11:00:27.728Z,34.53
2017-11-29T11:02:56.773Z,27.47
2017-11-29T11:05:25.814Z,37.77
2017-11-29T11:07:54.775Z,33.10
2017-11-29T11:10:23.766Z,31.97
2017-11-29T11:12:54.777Z,38.60
2017-11-29T11:15:23.767Z,33.07
2017-11-29T11:17:53.952Z,30.13
2017-11-29T11:20:22.926Z,30.83
2017-11-29T11:22:52.688Z,37.07
2017-11-29T11:39:06.504Z,31.50
2017-11-29T11:41:35.528Z,31.73
2017-11-29T11:44:04.513Z,33.73
2017-11-29T11:46:33.594Z,31.07
2017-11-29T11:49:03.319Z,34.77
2017-11-29T11:51:32.714Z,32.03
2017-11-29T11:54:02.661Z,30.30
2017-11-29T11:56:35.007Z,37.50
2017-11-29T11:59:04.400Z,36.87
2017-11-29T12:01:33.833Z,37.43
2017-11-29T12:04:03.203Z,33.23
2017-11-29T12:06:32.845Z,38.00
2017-11-29T12:09:01.911Z,45.03
2017-11-29T12:11:30.951Z,34.90
2017-11-29T12:14:00.763Z,34.50
2017-11-29T12:16:29.811Z,41.87
2017-11-29T12:18:59.541Z,35.70
2017-11-29T12:21:29.326Z,44.37
2017-11-29T12:23:58.335Z,36.03
2017-11-29T12:26:27.406Z,35.37
2017-11-29T12:28:56.379Z,38.50
2017-11-29T12:31:25.833Z,40.40
2017-11-29T12:33:54.853Z,38.67
2017-11-29T12:36:24.594Z,34.80
2017-11-29T12:38:53.633Z,41.53
2017-11-29T12:41:22.613Z,44.43
2017-11-29T12:43:51.595Z,33.00
2017-11-29T12:46:20.610Z,50.53
2017-11-29T12:49:01.655Z,40.53
2017-11-29T12:51:30.740Z,40.07
2017-11-29T12:54:00.549Z,38.00
2017-11-29T12:56:29.522Z,38.33
2017-11-29T12:58:58.545Z,36.50
2017-11-29T13:01:27.535Z,42.83
2017-11-29T13:03:56.507Z,32.97
2017-11-29T13:06:25.630Z,42.57
2017-11-29T13:08:54.751Z,78.67
2017-11-29T13:11:23.755Z,47.63
2017-11-29T13:13:53.620Z,54.47
2017-11-29T13:16:23.155Z,45.70
2017-11-29T13:18:53.654Z,55.40
2017-11-29T13:21:22.679Z,63.70
2017-11-29T13:23:52.390Z,46.00
2017-11-29T13:26:22.141Z,43.33
2017-11-29T13:28:52.256Z,40.40
2017-11-29T13:31:21.804Z,37.30
2017-11-29T13:33:51.550Z,50.40
2017-11-29T13:36:20.946Z,43.53
2017-11-29T13:38:50.448Z,48.17
2017-11-29T13:41:19.465Z,41.97
2017-11-29T13:43:48.445Z,67.97
2017-11-29T13:46:17.505Z,50.03
2017-11-29T13:48:46.611Z,42.10
2017-11-29T13:51:15.776Z,50.13
2017-11-29T13:53:44.754Z,41.60
2017-11-29T13:56:14.540Z,58.60
2017-11-29T13:58:43.542Z,37.10
2017-11-29T14:01:12.594Z,41.30
2017-11-29T14:03:41.596Z,52.27
2017-11-29T14:06:11.362Z,39.33
2017-11-29T14:08:40.386Z,38.67
2017-11-29T14:11:09.447Z,36.27
2017-11-29T14:13:38.455Z,41.00
2017-11-29T14:16:07.708Z,30.10
2017-11-29T14:18:36.716Z,44.83
2017-11-29T14:21:05.907Z,32.53
2017-11-29T14:23:34.925Z,41.77
2017-11-29T14:26:04.522Z,42.10
2017-11-29T14:28:33.504Z,43.60
2017-11-29T14:31:02.507Z,45.00
2017-11-29T14:33:31.503Z,44.17
2017-11-29T14:36:00.541Z,37.90
2017-11-29T14:38:30.407Z,42.17
2017-11-29T14:41:00.247Z,38.20
2017-11-29T14:43:30.084Z,44.97
2017-11-29T14:45:59.097Z,41.97
2017-11-29T14:48:29.885Z,33.13
2017-11-29T14:53:34.135Z,48.03
2017-11-29T14:56:03.501Z,43.40
2017-11-29T14:58:32.494Z,54.50
2017-11-29T15:01:02.057Z,41.57
2017-11-29T15:03:31.074Z,39.53
2017-11-29T15:06:00.509Z,35.27
2017-11-29T15:08:29.530Z,49.13
2017-11-29T15:10:59.312Z,36.37
2017-11-29T15:13:28.333Z,31.47
2017-11-29T15:15:58.122Z,34.97
2017-11-29T15:18:27.153Z,32.13
2017-11-29T15:20:56.926Z,28.93
2017-11-29T15:23:27.426Z,29.63
2017-11-29T15:25:56.531Z,32.50
2017-11-29T15:28:26.092Z,30.90
2017-11-29T15:30:55.378Z,31.80
2017-11-29T15:33:24.386Z,34.87
2017-11-29T15:35:54.290Z,49.47
2017-11-29T15:38:24.126Z,39.77
2017-11-29T15:40:53.603Z,37.77
2017-11-29T15:43:23.509Z,36.57
2017-11-29T15:45:52.922Z,40.00
2017-11-29T15:48:22.667Z,40.43
2017-11-29T15:50:51.684Z,42.30
2017-11-29T15:53:20.723Z,40.10
2017-11-29T15:55:49.813Z,49.60
2017-11-29T15:58:19.826Z,39.80
2017-11-29T16:00:49.548Z,37.57
2017-11-29T16:03:18.566Z,36.70
2017-11-29T16:05:48.676Z,34.30
2017-11-29T16:08:17.744Z,37.27
2017-11-29T16:10:46.779Z,39.80
2017-11-29T16:13:15.765Z,37.17
2017-11-29T16:15:45.581Z,46.13
2017-11-29T16:18:15.001Z,40.70
2017-11-29T16:20:44.921Z,36.70
2017-11-29T16:23:14.720Z,42.53
2017-11-29T16:25:44.481Z,40.67
2017-11-29T16:28:14.240Z,41.50
2017-11-29T16:30:43.202Z,35.90
2017-11-29T16:33:12.225Z,45.77
2017-11-29T16:35:41.219Z,39.43
2017-11-29T16:38:10.994Z,37.53
2017-11-29T16:40:40.425Z,37.83
2017-11-29T16:43:10.220Z,38.43
2017-11-29T16:45:40.347Z,40.93
2017-11-29T16:48:10.796Z,42.60
2017-11-29T16:53:16.184Z,48.73
2017-11-29T16:55:45.581Z,37.07
2017-11-29T16:58:14.600Z,37.73
2017-11-29T17:00:43.795Z,43.77
2017-11-29T17:03:12.826Z,41.07
2017-11-29T17:05:41.844Z,48.33
2017-11-29T17:08:10.839Z,39.20
2017-11-29T17:10:40.573Z,41.40
2017-11-29T17:13:10.046Z,39.37
2017-11-29T17:15:39.476Z,46.10
2017-11-29T17:18:09.053Z,36.87
2017-11-29T17:20:38.925Z,41.00
2017-11-29T17:23:08.042Z,37.93
2017-11-29T17:25:37.466Z,45.10
2017-11-29T17:28:06.462Z,36.47
2017-11-29T17:30:35.537Z,32.53
2017-11-29T17:33:04.550Z,37.97
2017-11-29T17:35:33.508Z,35.80
2017-11-29T17:38:03.656Z,31.03
2017-11-29T17:40:32.668Z,36.10
2017-11-29T17:43:02.455Z,41.07
2017-11-29T17:45:31.493Z,37.27
2017-11-29T17:48:00.884Z,38.57
2017-11-29T17:50:30.645Z,34.47
2017-11-29T17:53:00.187Z,33.97
2017-11-29T17:55:29.622Z,39.17
2017-11-29T17:57:58.755Z,35.20
2017-11-29T18:00:27.758Z,39.60
2017-11-29T18:02:57.549Z,40.43
2017-11-29T18:05:27.136Z,54.03
2017-11-29T18:07:56.412Z,47.83
2017-11-29T18:10:27.248Z,46.00
2017-11-29T18:12:56.574Z,43.40
2017-11-29T18:15:25.873Z,43.50
2017-11-29T18:17:55.682Z,46.43
2017-11-29T18:20:25.007Z,43.73
2017-11-29T18:22:54.777Z,42.73
2017-11-29T18:25:24.557Z,44.00
2017-11-29T18:27:54.650Z,42.97
2017-11-29T18:30:24.073Z,41.67
2017-11-29T18:32:53.840Z,38.23
2017-11-29T18:35:22.843Z,34.73
2017-11-29T18:37:51.913Z,41.60
2017-11-29T18:40:20.904Z,39.80
2017-11-29T18:42:50.717Z,40.23
2017-11-29T18:48:02.486Z,35.03
2017-11-29T18:50:31.610Z,37.23
2017-11-29T18:53:01.477Z,37.17
2017-11-29T18:55:30.623Z,34.77
2017-11-29T18:58:00.440Z,31.70
2017-11-29T19:00:30.052Z,30.83
2017-11-29T19:02:59.143Z,26.40
2017-11-29T19:05:28.963Z,33.63
2017-11-29T19:07:58.771Z,32.67
2017-11-29T19:10:29.350Z,29.03
2017-11-29T19:12:58.897Z,32.37
2017-11-29T19:15:28.041Z,31.10
2017-11-29T19:17:57.891Z,33.33
2017-11-29T19:20:27.796Z,27.03
2017-11-29T19:22:56.793Z,29.10
2017-11-29T19:25:26.209Z,33.17
2017-11-29T19:27:56.147Z,28.20
2017-11-29T19:30:26.064Z,29.40
2017-11-29T19:32:55.616Z,34.27
2017-11-29T19:35:25.830Z,27.97
2017-11-29T19:37:56.406Z,31.00
2017-11-29T19:40:25.459Z,29.20
2017-11-29T19:42:54.993Z,29.20
2017-11-29T19:45:25.007Z,30.20
2017-11-29T19:47:54.123Z,30.80
2017-11-29T19:50:23.262Z,29.70
2017-11-29T19:52:52.333Z,27.03
2017-11-29T19:55:21.375Z,31.63
2017-11-29T19:57:50.407Z,27.77
2017-11-29T20:00:19.448Z,30.23
2017-11-29T20:02:49.278Z,27.70
2017-11-29T20:05:19.144Z,33.70
2017-11-29T20:07:48.572Z,28.20
2017-11-29T20:10:17.760Z,32.67
2017-11-29T20:12:47.604Z,34.10
2017-11-29T20:15:17.580Z,33.50
2017-11-29T20:17:47.405Z,31.13
2017-11-29T20:20:16.543Z,40.33
2017-11-29T20:22:47.208Z,40.73
2017-11-29T20:25:16.663Z,34.87
2017-11-29T20:27:45.670Z,37.37
2017-11-29T20:30:15.471Z,35.63
2017-11-29T20:32:45.454Z,35.17
2017-11-29T20:35:15.364Z,33.43
2017-11-29T20:37:44.906Z,36.03
2017-11-29T20:40:15.587Z,37.43
2017-11-29T20:42:44.739Z,41.27
2017-11-29T20:45:14.630Z,32.20
2017-11-29T20:47:44.602Z,39.87
2017-11-29T20:50:14.185Z,41.20
2017-11-29T20:52:55.486Z,44.90
2017-11-29T20:55:25.932Z,40.07
2017-11-29T20:57:55.070Z,40.63
2017-11-29T21:00:24.952Z,36.97
2017-11-29T21:02:54.765Z,34.63
2017-11-29T21:05:23.945Z,37.67
2017-11-29T21:07:53.725Z,39.47
2017-11-29T21:10:23.209Z,40.53
2017-11-29T21:12:52.707Z,41.27
2017-11-29T21:15:21.825Z,35.37
2017-11-29T21:17:50.852Z,34.77
2017-11-29T21:20:20.632Z,40.07
2017-11-29T21:22:50.455Z,34.80
2017-11-29T21:25:19.875Z,35.00
2017-11-29T21:27:49.869Z,36.10
2017-11-29T21:30:19.294Z,34.83
2017-11-29T21:32:49.253Z,33.70
2017-11-29T21:35:18.387Z,42.17
2017-11-29T21:37:47.908Z,34.50
2017-11-29T21:40:16.926Z,35.77
2017-11-29T21:42:46.704Z,39.60
2017-11-29T21:45:16.579Z,41.67
2017-11-29T21:47:45.562Z,36.63
2017-11-29T21:50:15.362Z,34.50
2017-11-29T21:52:44.761Z,33.47
2017-11-29T21:55:13.814Z,39.67
2017-11-29T21:57:44.277Z,33.43
2017-11-29T22:00:13.332Z,37.93
2017-11-29T22:02:42.767Z,41.10
2017-11-29T22:05:12.203Z,34.50
2017-11-29T22:07:41.639Z,38.80
2017-11-29T22:10:10.700Z,36.50
2017-11-29T22:12:40.540Z,37.37
2017-11-29T22:15:09.995Z,34.30
2017-11-29T22:17:39.538Z,41.13
2017-11-29T22:20:09.313Z,43.63
2017-11-29T22:22:38.758Z,45.90
2017-11-29T22:25:07.813Z,52.17
2017-11-29T22:27:36.851Z,45.07
2017-11-29T22:30:05.959Z,37.37
2017-11-29T22:32:34.948Z,44.07
2017-11-29T22:35:04.757Z,40.27
2017-11-29T22:37:33.894Z,40.87
2017-11-29T22:40:02.917Z,47.63
2017-11-29T22:42:34.349Z,39.67
2017-11-29T22:45:04.207Z,38.13
2017-11-29T22:47:33.176Z,43.20
2017-11-29T22:50:02.210Z,45.50
2017-11-29T22:52:31.654Z,37.57
2017-11-29T22:55:01.073Z,38.27
2017-11-29T22:57:30.085Z,41.80
2017-11-29T22:59:59.154Z,45.37
2017-11-29T23:02:28.574Z,38.37
2017-11-29T23:04:57.997Z,37.97
2017-11-29T23:07:27.763Z,42.30
2017-11-29T23:09:57.167Z,43.60
2017-11-29T23:12:26.932Z,49.40
2017-11-29T23:14:56.742Z,37.50
2017-11-29T23:17:25.713Z,39.13
2017-11-29T23:19:54.716Z,40.27
2017-11-29T23:22:23.750Z,45.60
2017-11-29T23:24:53.505Z,44.47
2017-11-29T23:27:22.514Z,39.37
2017-11-29T23:29:51.541Z,41.00
2017-11-29T23:32:20.525Z,48.20
2017-11-29T23:34:51.045Z,43.27
2017-11-29T23:37:20.424Z,43.73
2017-11-29T23:39:49.466Z,42.87
2017-11-29T23:42:18.429Z,46.67
2017-11-29T23:44:47.849Z,46.90
2017-11-29T23:47:16.858Z,42.80
2017-11-29T23:49:45.857Z,45.87
2017-11-29T23:52:14.836Z,41.40
2017-11-29T23:54:43.849Z,40.40
2017-11-29T23:57:13.605Z,48.37
2017-11-29T23:59:42.605Z,49.90
